createdAt,value
2018-10-12T00:01:16.376Z,15.73
2018-10-12T00:03:43.803Z,13.47
2018-10-12T00:06:11.240Z,14.47
2018-10-12T00:08:39.044Z,13.80
2018-10-12T00:11:06.483Z,17.57
2018-10-12T00:13:33.905Z,17.97
2018-10-12T00:16:01.343Z,15.60
2018-10-12T00:18:28.778Z,13.40
2018-10-12T00:20:56.204Z,13.67
2018-10-12T00:23:23.640Z,15.73
2018-10-12T00:25:51.072Z,18.77
2018-10-12T00:28:18.519Z,15.10
2018-10-12T00:30:45.967Z,15.10
2018-10-12T00:33:13.392Z,15.85
2018-10-12T00:35:40.812Z,12.87
2018-10-12T00:38:08.248Z,12.20
2018-10-12T00:40:35.681Z,12.53
2018-10-12T00:43:03.116Z,15.08
2018-10-12T00:45:30.527Z,16.33
2018-10-12T00:48:01.753Z,14.87
2018-10-12T00:50:30.743Z,15.77
2018-10-12T00:52:58.268Z,12.67
2018-10-12T00:55:26.588Z,13.40
2018-10-12T00:57:54.065Z,14.20
2018-10-12T01:00:21.603Z,13.70
2018-10-12T01:02:49.064Z,14.30
2018-10-12T01:05:16.508Z,13.48
2018-10-12T01:07:43.936Z,14.47
2018-10-12T01:10:11.363Z,14.95
2018-10-12T01:12:38.834Z,12.77
2018-10-12T01:15:06.264Z,13.03
2018-10-12T01:17:34.319Z,14.93
2018-10-12T01:20:01.769Z,13.90
2018-10-12T01:22:29.852Z,14.73
2018-10-12T01:24:58.335Z,14.83
2018-10-12T01:27:26.028Z,16.63
2018-10-12T01:29:53.856Z,16.43
2018-10-12T01:32:26.748Z,13.20
2018-10-12T01:34:54.552Z,12.73
2018-10-12T01:37:21.988Z,12.90
2018-10-12T01:39:49.454Z,15.50
2018-10-12T01:42:16.856Z,18.30
2018-10-12T01:44:44.272Z,14.77
2018-10-12T01:47:11.695Z,13.10
2018-10-12T01:49:39.484Z,14.10
2018-10-12T01:52:06.912Z,15.83
2018-10-12T01:54:34.345Z,15.37
2018-10-12T01:57:01.786Z,14.90
2018-10-12T01:59:29.205Z,15.10
2018-10-12T02:01:56.644Z,14.03
2018-10-12T02:04:24.072Z,15.32
2018-10-12T02:06:51.509Z,15.43
2018-10-12T02:09:18.935Z,13.13
2018-10-12T02:11:46.402Z,15.97
2018-10-12T02:14:13.840Z,16.10
2018-10-12T02:16:41.260Z,14.27
2018-10-12T02:19:08.689Z,13.93
2018-10-12T02:21:36.114Z,13.93
2018-10-12T02:24:03.872Z,15.63
2018-10-12T02:26:31.292Z,13.30
2018-10-12T02:28:58.996Z,15.60
2018-10-12T02:31:26.420Z,15.38
2018-10-12T02:33:53.853Z,15.20
2018-10-12T02:36:21.284Z,12.90
2018-10-12T02:38:48.715Z,19.87
2018-10-12T02:41:16.144Z,15.03
2018-10-12T02:43:43.570Z,14.03
2018-10-12T02:46:11.022Z,14.93
2018-10-12T02:48:38.459Z,12.87
2018-10-12T02:51:05.872Z,12.33
2018-10-12T02:53:33.307Z,16.20
2018-10-12T02:56:00.741Z,15.27
2018-10-12T02:58:28.171Z,16.70
2018-10-12T03:00:55.596Z,12.10
2018-10-12T03:03:23.027Z,15.43
2018-10-12T03:05:50.457Z,13.22
2018-10-12T03:08:17.886Z,15.27
2018-10-12T03:10:45.447Z,13.33
2018-10-12T03:13:12.880Z,15.67
2018-10-12T03:15:40.317Z,14.53
2018-10-12T03:18:07.753Z,15.03
2018-10-12T03:20:35.176Z,14.35
2018-10-12T03:23:02.623Z,13.27
2018-10-12T03:25:30.045Z,12.17
2018-10-12T03:27:57.667Z,16.73
2018-10-12T03:30:25.353Z,12.23
2018-10-12T03:32:52.777Z,12.77
2018-10-12T03:35:20.207Z,14.63
2018-10-12T03:37:47.627Z,17.30
2018-10-12T03:40:15.061Z,15.80
2018-10-12T03:42:42.495Z,14.80
2018-10-12T03:45:09.919Z,14.23
2018-10-12T03:47:37.345Z,14.93
2018-10-12T03:50:04.983Z,13.27
2018-10-12T03:52:32.416Z,13.95
2018-10-12T03:54:59.845Z,13.67
2018-10-12T03:57:27.272Z,15.47
2018-10-12T03:59:54.713Z,15.10
2018-10-12T04:02:22.143Z,16.23
2018-10-12T04:04:49.572Z,13.47
2018-10-12T04:07:17.014Z,13.90
2018-10-12T04:09:44.440Z,16.53
2018-10-12T04:12:11.883Z,14.93
2018-10-12T04:14:39.315Z,16.50
2018-10-12T04:17:06.739Z,15.28
2018-10-12T04:19:34.168Z,17.30
2018-10-12T04:22:01.600Z,16.40
2018-10-12T04:24:29.084Z,16.43
2018-10-12T04:26:56.503Z,16.42
2018-10-12T04:29:23.932Z,16.70
2018-10-12T04:31:51.360Z,14.80
2018-10-12T04:34:18.801Z,15.67
2018-10-12T04:36:46.244Z,14.73
2018-10-12T04:39:13.664Z,14.70
2018-10-12T04:41:41.098Z,15.10
2018-10-12T04:44:08.540Z,14.80
2018-10-12T04:46:38.246Z,14.33
2018-10-12T04:49:05.677Z,16.47
2018-10-12T04:51:34.660Z,17.37
2018-10-12T04:54:02.307Z,15.10
2018-10-12T04:56:29.726Z,15.85
2018-10-12T04:58:57.152Z,18.00
2018-10-12T05:01:24.670Z,17.75
2018-10-12T05:03:52.109Z,15.53
2018-10-12T05:06:19.595Z,15.73
2018-10-12T05:08:47.028Z,17.40
2018-10-12T05:11:14.464Z,20.67
2018-10-12T05:13:41.908Z,21.27
2018-10-12T05:16:09.331Z,17.00
2018-10-12T05:18:36.818Z,18.57
2018-10-12T05:21:04.615Z,18.80
2018-10-12T05:23:32.061Z,16.43
2018-10-12T05:26:00.040Z,16.17
2018-10-12T05:28:28.239Z,15.60
2018-10-12T05:30:55.868Z,17.07
2018-10-12T05:33:23.367Z,16.45
2018-10-12T05:35:50.800Z,17.33
2018-10-12T05:38:18.550Z,17.77
2018-10-12T05:40:45.980Z,18.02
2018-10-12T05:43:13.566Z,16.13
2018-10-12T05:45:40.936Z,16.55
2018-10-12T05:48:08.364Z,16.97
2018-10-12T05:50:35.864Z,17.17
2018-10-12T05:53:03.296Z,19.20
2018-10-12T05:55:30.764Z,16.97
2018-10-12T05:57:58.239Z,18.73
2018-10-12T06:00:25.668Z,16.23
2018-10-12T06:02:53.096Z,16.17
2018-10-12T06:05:20.720Z,18.23
2018-10-12T06:07:48.156Z,18.37
2018-10-12T06:10:15.588Z,15.55
2018-10-12T06:12:43.020Z,16.27
2018-10-12T06:15:10.444Z,20.15
2018-10-12T06:17:37.870Z,16.63
2018-10-12T06:20:05.338Z,19.10
2018-10-12T06:22:32.755Z,17.97
2018-10-12T06:25:00.180Z,17.92
2018-10-12T06:27:27.608Z,16.43
2018-10-12T06:29:55.096Z,18.17
2018-10-12T06:32:22.644Z,17.93
2018-10-12T06:34:50.083Z,19.00
2018-10-12T06:37:17.567Z,17.97
2018-10-12T06:39:44.992Z,18.23
2018-10-12T06:42:12.419Z,19.20
2018-10-12T06:44:39.844Z,16.85
2018-10-12T06:47:07.276Z,18.47
2018-10-12T06:49:34.723Z,16.90
2018-10-12T06:52:02.147Z,16.07
2018-10-12T06:54:29.584Z,17.82
2018-10-12T06:56:57.011Z,16.20
2018-10-12T06:59:24.443Z,19.05
2018-10-12T07:01:51.871Z,15.57
2018-10-12T07:04:19.396Z,16.53
2018-10-12T07:06:46.827Z,19.47
2018-10-12T07:09:14.477Z,15.83
2018-10-12T07:11:42.022Z,17.47
2018-10-12T07:14:09.572Z,17.30
2018-10-12T07:16:36.989Z,16.05
2018-10-12T07:19:04.412Z,17.07
2018-10-12T07:21:31.983Z,17.60
2018-10-12T07:23:59.405Z,19.60
2018-10-12T07:26:26.836Z,17.55
2018-10-12T07:28:54.265Z,15.97
2018-10-12T07:31:21.742Z,15.60
2018-10-12T07:33:49.172Z,16.77
2018-10-12T07:36:16.607Z,21.67
2018-10-12T07:38:44.037Z,15.80
2018-10-12T07:41:11.467Z,14.95
2018-10-12T07:43:38.930Z,16.97
2018-10-12T07:46:06.368Z,17.55
2018-10-12T07:48:33.792Z,19.07
2018-10-12T07:51:01.224Z,16.27
2018-10-12T07:53:28.657Z,15.43
2018-10-12T07:55:56.110Z,16.35
2018-10-12T07:58:23.568Z,15.60
2018-10-12T08:00:50.992Z,18.15
2018-10-12T08:03:18.415Z,16.27
2018-10-12T08:05:45.847Z,15.43
2018-10-12T08:08:13.387Z,18.63
2018-10-12T08:10:40.829Z,16.67
2018-10-12T08:13:08.255Z,17.37
2018-10-12T08:15:35.691Z,14.20
2018-10-12T08:18:03.124Z,15.30
2018-10-12T08:20:30.649Z,14.23
2018-10-12T08:22:58.031Z,14.70
2018-10-12T08:25:25.463Z,13.98
2018-10-12T08:27:53.144Z,14.57
2018-10-12T08:30:20.629Z,16.20
2018-10-12T08:32:48.061Z,13.80
2018-10-12T08:35:15.488Z,13.90
2018-10-12T08:37:42.956Z,12.90
2018-10-12T08:40:10.379Z,14.73
2018-10-12T08:42:37.897Z,16.02
2018-10-12T08:45:05.292Z,14.60
2018-10-12T08:47:32.732Z,13.80
2018-10-12T08:50:00.161Z,13.80
2018-10-12T08:52:27.637Z,14.83
2018-10-12T08:54:55.191Z,13.23
2018-10-12T08:57:22.632Z,13.70
2018-10-12T08:59:50.061Z,14.50
2018-10-12T09:02:17.497Z,14.47
2018-10-12T09:04:44.924Z,14.60
2018-10-12T09:07:12.363Z,14.30
2018-10-12T09:09:39.839Z,13.67
2018-10-12T09:12:07.272Z,12.75
2018-10-12T09:14:34.720Z,12.17
2018-10-12T09:17:02.151Z,11.33
2018-10-12T09:19:29.580Z,14.50
2018-10-12T09:21:57.210Z,12.77
2018-10-12T09:24:24.593Z,13.00
2018-10-12T09:26:52.018Z,12.35
2018-10-12T09:29:19.492Z,12.37
2018-10-12T09:31:46.922Z,13.03
2018-10-12T09:34:14.356Z,13.33
2018-10-12T09:36:41.864Z,12.47
2018-10-12T09:39:09.227Z,13.17
2018-10-12T09:41:36.691Z,11.48
2018-10-12T09:44:04.123Z,11.40
2018-10-12T09:46:31.559Z,12.10
2018-10-12T09:48:58.992Z,11.50
2018-10-12T09:51:26.508Z,13.23
2018-10-12T09:53:53.956Z,11.80
2018-10-12T09:56:21.384Z,11.85
2018-10-12T09:58:48.808Z,10.67
2018-10-12T10:01:21.668Z,10.63
2018-10-12T10:03:54.438Z,13.37
2018-10-12T10:06:21.865Z,10.33
2018-10-12T10:08:49.452Z,10.97
2018-10-12T10:11:16.711Z,10.93
2018-10-12T10:13:44.175Z,9.90
2018-10-12T10:16:11.556Z,10.23
2018-10-12T10:18:38.985Z,11.28
2018-10-12T10:21:06.416Z,10.63
2018-10-12T10:23:33.861Z,10.63
2018-10-12T10:26:01.436Z,10.93
2018-10-12T10:28:28.898Z,11.08
2018-10-12T10:30:56.346Z,10.90
2018-10-12T10:33:23.775Z,11.70
2018-10-12T10:35:51.220Z,11.60
2018-10-12T10:38:18.643Z,10.77
2018-10-12T10:40:46.135Z,11.00
2018-10-12T10:43:13.562Z,10.23
2018-10-12T10:45:41.019Z,12.37
2018-10-12T10:48:08.435Z,11.88
2018-10-12T10:50:35.857Z,13.60
2018-10-12T10:53:03.271Z,11.47
2018-10-12T10:55:30.708Z,10.90
2018-10-12T10:57:58.128Z,10.00
2018-10-12T11:00:25.595Z,10.60
2018-10-12T11:02:53.021Z,9.93
2018-10-12T11:05:20.439Z,12.30
2018-10-12T11:07:47.865Z,11.00
2018-10-12T11:10:15.315Z,11.50
2018-10-12T11:12:42.816Z,10.68
2018-10-12T11:15:10.168Z,13.70
2018-10-12T11:17:37.609Z,10.98
2018-10-12T11:20:05.036Z,13.77
2018-10-12T11:22:32.448Z,11.47
2018-10-12T11:24:59.880Z,12.47
2018-10-12T11:27:27.299Z,9.80
2018-10-12T11:29:54.741Z,10.70
2018-10-12T11:32:22.161Z,10.05
2018-10-12T11:34:49.581Z,10.97
2018-10-12T11:37:17.004Z,11.93
2018-10-12T11:39:44.442Z,12.27
2018-10-12T11:42:11.891Z,12.83
2018-10-12T11:44:39.327Z,12.43
2018-10-12T11:47:06.731Z,11.22
2018-10-12T11:49:34.156Z,10.73
2018-10-12T11:52:01.639Z,10.37
2018-10-12T11:54:28.994Z,10.63
2018-10-12T11:56:56.412Z,11.40
2018-10-12T11:59:24.416Z,10.43
2018-10-12T12:01:51.841Z,12.00
2018-10-12T12:04:19.432Z,14.68
2018-10-12T12:06:46.848Z,10.20
2018-10-12T12:09:14.275Z,12.07
2018-10-12T12:11:41.716Z,12.97
2018-10-12T12:14:09.143Z,11.08
2018-10-12T12:16:36.566Z,10.27
2018-10-12T12:19:04.008Z,11.22
2018-10-12T12:21:31.428Z,9.80
2018-10-12T12:23:58.882Z,11.07
2018-10-12T12:26:26.317Z,11.97
2018-10-12T12:28:53.733Z,9.58
2018-10-12T12:31:21.163Z,9.53
2018-10-12T12:33:48.580Z,10.68
2018-10-12T12:36:16.189Z,10.87
2018-10-12T12:38:44.140Z,10.43
2018-10-12T12:41:12.115Z,10.72
2018-10-12T12:43:39.548Z,11.33
2018-10-12T12:46:06.963Z,9.27
2018-10-12T12:48:34.685Z,10.20
2018-10-12T12:51:01.811Z,10.50
2018-10-12T12:53:29.232Z,9.70
2018-10-12T12:55:56.653Z,9.63
2018-10-12T12:58:24.133Z,10.60
2018-10-12T13:00:51.592Z,11.53
2018-10-12T13:03:18.973Z,9.07
2018-10-12T13:05:46.391Z,9.85
2018-10-12T13:08:13.847Z,14.30
2018-10-12T13:10:41.507Z,9.40
2018-10-12T13:13:08.923Z,11.67
2018-10-12T13:15:36.624Z,10.20
2018-10-12T13:18:04.048Z,10.47
2018-10-12T13:20:31.568Z,9.97
2018-10-12T13:22:58.975Z,9.00
2018-10-12T13:25:26.412Z,10.07
2018-10-12T13:27:53.802Z,9.80
2018-10-12T13:30:21.223Z,9.67
2018-10-12T13:32:48.631Z,9.70
2018-10-12T13:35:16.051Z,9.50
2018-10-12T13:37:43.525Z,9.78
2018-10-12T13:40:10.897Z,9.80
2018-10-12T13:42:38.319Z,9.28
2018-10-12T13:45:05.744Z,11.97
2018-10-12T13:47:33.172Z,10.73
2018-10-12T13:50:00.588Z,9.13
2018-10-12T13:52:28.002Z,9.38
2018-10-12T13:54:55.411Z,9.77
2018-10-12T13:57:22.848Z,9.15
2018-10-12T13:59:50.268Z,11.40
2018-10-12T14:02:17.696Z,10.83
2018-10-12T14:04:45.121Z,13.90
2018-10-12T14:07:12.548Z,11.25
2018-10-12T14:09:39.968Z,9.23
2018-10-12T14:12:07.390Z,10.43
2018-10-12T14:14:34.798Z,8.77
2018-10-12T14:17:02.206Z,12.57
2018-10-12T14:19:29.672Z,9.00
2018-10-12T14:21:57.068Z,9.93
2018-10-12T14:24:24.480Z,10.23
2018-10-12T14:26:51.970Z,10.13
2018-10-12T14:29:19.308Z,10.90
2018-10-12T14:31:46.727Z,9.30
2018-10-12T14:34:14.144Z,8.93
2018-10-12T14:36:41.567Z,12.27
2018-10-12T14:39:09.256Z,10.83
2018-10-12T14:41:36.925Z,10.27
2018-10-12T14:44:04.555Z,9.25
2018-10-12T14:46:31.864Z,8.93
2018-10-12T14:48:59.296Z,10.67
2018-10-12T14:51:26.817Z,10.77
2018-10-12T14:53:54.183Z,10.23
2018-10-12T14:56:21.601Z,9.80
2018-10-12T14:58:49.041Z,10.88
2018-10-12T15:01:16.444Z,9.70
2018-10-12T15:03:43.875Z,10.00
2018-10-12T15:06:11.291Z,9.67
2018-10-12T15:08:38.716Z,9.93
2018-10-12T15:11:06.141Z,10.70
2018-10-12T15:13:33.563Z,10.98
2018-10-12T15:16:00.990Z,10.33
2018-10-12T15:18:28.413Z,10.23
2018-10-12T15:20:55.867Z,13.07
2018-10-12T15:23:23.257Z,9.43
2018-10-12T15:25:50.668Z,9.30
2018-10-12T15:28:18.110Z,11.00
2018-10-12T15:30:45.520Z,13.00
2018-10-12T15:33:12.940Z,11.43
2018-10-12T15:35:40.355Z,11.53
2018-10-12T15:38:07.802Z,8.63
2018-10-12T15:40:35.216Z,10.83
2018-10-12T15:43:02.743Z,12.75
2018-10-12T15:45:30.063Z,10.00
2018-10-12T15:47:57.501Z,11.83
2018-10-12T15:50:24.920Z,12.57
2018-10-12T15:52:52.348Z,9.58
2018-10-12T15:55:19.760Z,9.87
2018-10-12T15:57:47.189Z,10.35
2018-10-12T16:00:14.608Z,9.87
2018-10-12T16:02:42.075Z,10.20
2018-10-12T16:05:09.484Z,12.43
2018-10-12T16:07:36.904Z,9.48
2018-10-12T16:10:04.311Z,12.70
2018-10-12T16:12:31.744Z,10.38
2018-10-12T16:14:59.164Z,14.60
2018-10-12T16:17:26.588Z,11.40
2018-10-12T16:19:54.018Z,10.07
2018-10-12T16:22:21.493Z,11.57
2018-10-12T16:24:48.868Z,10.50
2018-10-12T16:27:16.297Z,13.22
2018-10-12T16:29:43.715Z,11.17
2018-10-12T16:32:11.136Z,11.10
2018-10-12T16:34:38.570Z,11.80
2018-10-12T16:37:06.010Z,12.83
2018-10-12T16:39:33.423Z,12.77
2018-10-12T16:42:00.844Z,12.65
2018-10-12T16:44:28.267Z,11.20
2018-10-12T16:46:55.692Z,13.37
2018-10-12T16:49:23.113Z,12.20
2018-10-12T16:51:50.547Z,11.00
2018-10-12T16:54:17.987Z,12.47
2018-10-12T16:56:45.401Z,12.65
2018-10-12T16:59:12.832Z,14.27
2018-10-12T17:01:40.248Z,11.90
2018-10-12T17:04:07.705Z,14.90
2018-10-12T17:06:35.110Z,13.77
2018-10-12T17:09:02.551Z,11.77
2018-10-12T17:11:29.999Z,15.03
2018-10-12T17:13:57.432Z,15.93
2018-10-12T17:16:24.863Z,14.00
2018-10-12T17:18:52.294Z,12.83
2018-10-12T17:21:19.712Z,14.20
2018-10-12T17:23:47.144Z,13.37
2018-10-12T17:26:14.565Z,16.45
2018-10-12T17:28:41.988Z,15.13
2018-10-12T17:31:09.417Z,15.17
2018-10-12T17:33:36.861Z,12.70
2018-10-12T17:36:04.283Z,13.00
2018-10-12T17:38:31.710Z,12.90
2018-10-12T17:40:59.131Z,13.70
2018-10-12T17:43:26.560Z,14.37
2018-10-12T17:45:53.984Z,12.07
2018-10-12T17:48:21.410Z,15.37
2018-10-12T17:50:48.851Z,15.23
2018-10-12T17:53:16.278Z,13.27
2018-10-12T17:55:43.704Z,13.75
2018-10-12T17:58:11.131Z,14.27
2018-10-12T18:00:38.557Z,15.20
2018-10-12T18:03:05.996Z,15.03
2018-10-12T18:05:33.444Z,14.40
2018-10-12T18:08:00.885Z,16.67
2018-10-12T18:10:28.308Z,13.35
2018-10-12T18:12:55.737Z,14.53
2018-10-12T18:15:23.485Z,15.63
2018-10-12T18:17:50.927Z,15.47
2018-10-12T18:20:18.345Z,15.13
2018-10-12T18:22:45.767Z,15.43
2018-10-12T18:25:13.231Z,14.50
2018-10-12T18:27:40.653Z,18.53
2018-10-12T18:30:08.081Z,15.30
2018-10-12T18:32:35.504Z,14.87
2018-10-12T18:35:02.944Z,15.07
2018-10-12T18:37:30.377Z,14.70
2018-10-12T18:39:57.800Z,18.10
2018-10-12T18:42:25.225Z,15.60
2018-10-12T18:44:52.654Z,16.20
2018-10-12T18:47:20.075Z,18.27
2018-10-12T18:49:47.552Z,17.10
2018-10-12T18:52:14.977Z,15.43
2018-10-12T18:54:42.400Z,16.67
2018-10-12T18:57:09.820Z,16.62
2018-10-12T18:59:37.282Z,16.30
2018-10-12T19:02:04.677Z,16.40
2018-10-12T19:04:32.402Z,16.77
2018-10-12T19:06:59.771Z,18.85
2018-10-12T19:09:27.207Z,16.43
2018-10-12T19:11:54.708Z,15.87
2018-10-12T19:14:22.137Z,16.77
2018-10-12T19:16:49.545Z,15.60
2018-10-12T19:19:16.968Z,19.20
2018-10-12T19:21:44.404Z,17.90
2018-10-12T19:24:11.909Z,19.07
2018-10-12T19:26:39.275Z,16.73
2018-10-12T19:29:06.685Z,15.50
2018-10-12T19:31:34.288Z,18.37
2018-10-12T19:34:01.543Z,19.60
2018-10-12T19:36:28.976Z,19.77
2018-10-12T19:38:56.409Z,19.10
2018-10-12T19:41:23.823Z,18.73
2018-10-12T19:43:51.244Z,20.82
2018-10-12T19:46:18.688Z,21.40
2018-10-12T19:48:46.125Z,21.63
2018-10-12T19:51:13.554Z,20.40
2018-10-12T19:53:40.973Z,17.60
2018-10-12T19:56:08.517Z,18.27
2018-10-12T19:58:35.972Z,18.27
2018-10-12T20:01:03.404Z,18.70
2018-10-12T20:03:30.823Z,18.17
2018-10-12T20:05:58.252Z,18.83
2018-10-12T20:08:25.689Z,16.47
2018-10-12T20:10:53.127Z,18.30
2018-10-12T20:13:20.543Z,17.82
2018-10-12T20:15:47.971Z,18.97
2018-10-12T20:18:15.398Z,20.70
2018-10-12T20:20:42.831Z,17.17
2018-10-12T20:23:10.247Z,19.00
2018-10-12T20:25:37.683Z,19.43
2018-10-12T20:28:05.114Z,18.57
2018-10-12T20:30:32.536Z,19.00
2018-10-12T20:32:59.971Z,21.70
2018-10-12T20:35:27.403Z,19.07
2018-10-12T20:37:54.825Z,17.30
2018-10-12T20:40:22.264Z,18.47
2018-10-12T20:42:49.684Z,20.50
2018-10-12T20:45:23.606Z,16.43
2018-10-12T20:47:51.079Z,20.20
2018-10-12T20:50:18.503Z,18.98
2018-10-12T20:52:45.936Z,20.20
2018-10-12T20:55:13.356Z,21.25
2018-10-12T20:57:48.545Z,17.13
2018-10-12T21:00:16.935Z,19.23
2018-10-12T21:02:44.329Z,17.67
2018-10-12T21:05:12.181Z,18.50
2018-10-12T21:07:39.608Z,20.67
2018-10-12T21:10:07.446Z,18.03
2018-10-12T21:12:34.838Z,21.30
2018-10-12T21:15:02.257Z,22.37
2018-10-12T21:17:29.724Z,18.83
2018-10-12T21:19:57.144Z,19.93
2018-10-12T21:22:24.576Z,18.80
2018-10-12T21:24:52.007Z,18.77
2018-10-12T21:27:19.450Z,19.57
2018-10-12T21:29:46.864Z,18.05
2018-10-12T21:32:14.320Z,19.53
2018-10-12T21:34:41.802Z,16.50
2018-10-12T21:37:09.233Z,19.67
2018-10-12T21:39:36.655Z,20.17
2018-10-12T21:42:04.190Z,21.30
2018-10-12T21:44:31.588Z,19.00
2018-10-12T21:46:59.020Z,18.20
2018-10-12T21:49:26.445Z,21.12
2018-10-12T21:51:53.877Z,23.43
2018-10-12T21:54:21.292Z,18.70
2018-10-12T21:56:48.733Z,18.50
2018-10-12T21:59:16.180Z,20.25
2018-10-12T22:01:43.622Z,21.80
2018-10-12T22:04:11.049Z,18.95
2018-10-12T22:06:38.476Z,20.00
2018-10-12T22:09:06.604Z,22.47
2018-10-12T22:11:34.048Z,22.35
2018-10-12T22:14:01.481Z,23.50
2018-10-12T22:16:28.887Z,21.85
2018-10-12T22:18:56.309Z,23.07
2018-10-12T22:21:23.731Z,22.60
2018-10-12T22:23:51.157Z,21.43
2018-10-12T22:26:18.636Z,23.47
2018-10-12T22:28:46.016Z,21.23
2018-10-12T22:31:13.448Z,19.95
2018-10-12T22:33:40.873Z,20.97
2018-10-12T22:36:08.293Z,20.80
2018-10-12T22:38:35.720Z,22.07
2018-10-12T22:41:03.148Z,25.53
2018-10-12T22:43:30.603Z,21.23
2018-10-12T22:45:58.031Z,21.97
2018-10-12T22:48:25.464Z,21.43
2018-10-12T22:50:52.888Z,22.73
2018-10-12T22:53:20.311Z,24.03
2018-10-12T22:55:47.735Z,18.93
2018-10-12T22:58:15.181Z,23.03
2018-10-12T23:00:42.618Z,20.70
2018-10-12T23:03:10.045Z,23.23
2018-10-12T23:05:37.468Z,23.73
2018-10-12T23:08:04.916Z,22.30
2018-10-12T23:10:32.343Z,20.30
2018-10-12T23:12:59.773Z,21.93
2018-10-12T23:15:27.199Z,19.70
2018-10-12T23:17:54.645Z,22.83
2018-10-12T23:20:22.067Z,21.77
2018-10-12T23:22:49.507Z,21.50
2018-10-12T23:25:16.936Z,20.10
2018-10-12T23:27:44.364Z,22.83
2018-10-12T23:30:11.785Z,22.35
2018-10-12T23:32:39.212Z,20.20
2018-10-12T23:35:06.636Z,21.80
2018-10-12T23:37:34.081Z,22.20
2018-10-12T23:40:01.527Z,19.23
2018-10-12T23:42:29.003Z,21.30
2018-10-12T23:44:56.445Z,23.98
2018-10-12T23:47:23.965Z,21.90
2018-10-12T23:49:51.336Z,23.45
2018-10-12T23:52:18.763Z,19.10
2018-10-12T23:54:46.463Z,20.80
2018-10-12T23:57:13.883Z,21.17
2018-10-12T23:59:41.325Z,22.25
